sensor_id;sensor_type;location;lat;lon;timestamp;temperature;humidity
65824;SHT31;52585;47.566;19.056;2023-03-01T00:01:13;6.62;57.59
65824;SHT31;52585;47.566;19.056;2023-03-01T00:03:46;6.62;57.59
65824;SHT31;52585;47.566;19.056;2023-03-01T00:06:12;6.61;57.62
65824;SHT31;52585;47.566;19.056;2023-03-01T00:08:38;6.62;57.59
65824;SHT31;52585;47.566;19.056;2023-03-01T00:11:05;6.61;57.57
65824;SHT31;52585;47.566;19.056;2023-03-01T00:13:36;6.62;57.62
65824;SHT31;52585;47.566;19.056;2023-03-01T00:16:03;6.61;57.58
65824;SHT31;52585;47.566;19.056;2023-03-01T00:18:30;6.59;57.69
65824;SHT31;52585;47.566;19.056;2023-03-01T00:20:56;6.59;57.67
65824;SHT31;52585;47.566;19.056;2023-03-01T00:23:22;6.59;57.78
65824;SHT31;52585;47.566;19.056;2023-03-01T00:25:49;6.58;57.69
65824;SHT31;52585;47.566;19.056;2023-03-01T00:28:16;6.56;57.88
65824;SHT31;52585;47.566;19.056;2023-03-01T00:30:42;6.56;57.88
65824;SHT31;52585;47.566;19.056;2023-03-01T00:33:08;6.56;58.00
65824;SHT31;52585;47.566;19.056;2023-03-01T00:35:34;6.55;57.77
65824;SHT31;52585;47.566;19.056;2023-03-01T00:38:00;6.53;57.59
65824;SHT31;52585;47.566;19.056;2023-03-01T00:40:28;6.54;57.51
65824;SHT31;52585;47.566;19.056;2023-03-01T00:42:57;6.53;57.55
65824;SHT31;52585;47.566;19.056;2023-03-01T00:45:23;6.53;57.49
65824;SHT31;52585;47.566;19.056;2023-03-01T00:47:49;6.53;57.45
65824;SHT31;52585;47.566;19.056;2023-03-01T00:50:16;6.53;57.65
65824;SHT31;52585;47.566;19.056;2023-03-01T00:52:42;6.54;57.81
65824;SHT31;52585;47.566;19.056;2023-03-01T00:55:09;6.54;57.97
65824;SHT31;52585;47.566;19.056;2023-03-01T00:57:36;6.53;57.77
65824;SHT31;52585;47.566;19.056;2023-03-01T01:00:02;6.51;57.77
65824;SHT31;52585;47.566;19.056;2023-03-01T01:02:34;6.51;57.92
65824;SHT31;52585;47.566;19.056;2023-03-01T01:05:00;6.51;57.84
65824;SHT31;52585;47.566;19.056;2023-03-01T01:07:26;6.49;57.74
65824;SHT31;52585;47.566;19.056;2023-03-01T01:09:51;6.49;57.72
65824;SHT31;52585;47.566;19.056;2023-03-01T01:12:17;6.49;57.86
65824;SHT31;52585;47.566;19.056;2023-03-01T01:14:43;6.48;57.71
65824;SHT31;52585;47.566;19.056;2023-03-01T01:17:08;6.48;57.99
65824;SHT31;52585;47.566;19.056;2023-03-01T01:19:34;6.47;58.07
65824;SHT31;52585;47.566;19.056;2023-03-01T01:22:00;6.48;58.24
65824;SHT31;52585;47.566;19.056;2023-03-01T01:24:26;6.48;58.43
65824;SHT31;52585;47.566;19.056;2023-03-01T01:26:51;6.47;58.35
65824;SHT31;52585;47.566;19.056;2023-03-01T01:29:17;6.47;58.50
65824;SHT31;52585;47.566;19.056;2023-03-01T01:31:43;6.45;58.33
65824;SHT31;52585;47.566;19.056;2023-03-01T01:34:13;6.43;58.31
65824;SHT31;52585;47.566;19.056;2023-03-01T01:36:42;6.41;58.38
65824;SHT31;52585;47.566;19.056;2023-03-01T01:39:08;6.41;58.51
65824;SHT31;52585;47.566;19.056;2023-03-01T01:41:39;6.41;58.50
65824;SHT31;52585;47.566;19.056;2023-03-01T01:44:17;6.41;58.70
65824;SHT31;52585;47.566;19.056;2023-03-01T01:46:54;6.40;58.90
65824;SHT31;52585;47.566;19.056;2023-03-01T01:49:32;6.41;59.08
65824;SHT31;52585;47.566;19.056;2023-03-01T01:55:00;6.40;59.62
65824;SHT31;52585;47.566;19.056;2023-03-01T01:57:55;6.40;59.44
65824;SHT31;52585;47.566;19.056;2023-03-01T02:00:25;6.38;59.34
65824;SHT31;52585;47.566;19.056;2023-03-01T02:02:55;6.39;59.40
65824;SHT31;52585;47.566;19.056;2023-03-01T02:05:32;6.37;59.21
65824;SHT31;52585;47.566;19.056;2023-03-01T02:08:03;6.37;59.32
65824;SHT31;52585;47.566;19.056;2023-03-01T02:10:31;6.35;59.11
65824;SHT31;52585;47.566;19.056;2023-03-01T02:13:00;6.35;59.22
65824;SHT31;52585;47.566;19.056;2023-03-01T02:15:31;6.34;59.26
65824;SHT31;52585;47.566;19.056;2023-03-01T02:18:00;6.32;59.31
65824;SHT31;52585;47.566;19.056;2023-03-01T02:23:18;6.32;59.23
65824;SHT31;52585;47.566;19.056;2023-03-01T02:28:31;6.30;59.45
65824;SHT31;52585;47.566;19.056;2023-03-01T02:30:58;6.30;59.54
65824;SHT31;52585;47.566;19.056;2023-03-01T02:33:56;6.28;59.73
65824;SHT31;52585;47.566;19.056;2023-03-01T02:36:25;6.28;59.76
65824;SHT31;52585;47.566;19.056;2023-03-01T02:38:57;6.28;59.85
65824;SHT31;52585;47.566;19.056;2023-03-01T02:41:26;6.28;59.97
65824;SHT31;52585;47.566;19.056;2023-03-01T02:43:57;6.29;59.94
65824;SHT31;52585;47.566;19.056;2023-03-01T02:46:24;6.30;60.16
65824;SHT31;52585;47.566;19.056;2023-03-01T02:48:52;6.34;60.49
65824;SHT31;52585;47.566;19.056;2023-03-01T02:56:47;6.42;60.38
65824;SHT31;52585;47.566;19.056;2023-03-01T02:59:15;6.44;60.27
65824;SHT31;52585;47.566;19.056;2023-03-01T03:01:45;6.46;60.23
65824;SHT31;52585;47.566;19.056;2023-03-01T03:04:14;6.47;60.15
65824;SHT31;52585;47.566;19.056;2023-03-01T03:06:46;6.46;60.21
65824;SHT31;52585;47.566;19.056;2023-03-01T03:09:15;6.46;60.20
65824;SHT31;52585;47.566;19.056;2023-03-01T03:11:43;6.46;60.21
65824;SHT31;52585;47.566;19.056;2023-03-01T03:14:10;6.45;60.17
65824;SHT31;52585;47.566;19.056;2023-03-01T03:16:43;6.44;60.16
65824;SHT31;52585;47.566;19.056;2023-03-01T03:19:11;6.42;60.18
65824;SHT31;52585;47.566;19.056;2023-03-01T03:21:38;6.41;60.14
65824;SHT31;52585;47.566;19.056;2023-03-01T03:24:04;6.41;60.23
65824;SHT31;52585;47.566;19.056;2023-03-01T03:26:30;6.41;60.28
65824;SHT31;52585;47.566;19.056;2023-03-01T03:28:56;6.40;60.45
65824;SHT31;52585;47.566;19.056;2023-03-01T03:31:22;6.40;60.54
65824;SHT31;52585;47.566;19.056;2023-03-01T03:33:48;6.38;60.69
65824;SHT31;52585;47.566;19.056;2023-03-01T03:36:17;6.38;60.65
65824;SHT31;52585;47.566;19.056;2023-03-01T03:38:46;6.36;60.60
65824;SHT31;52585;47.566;19.056;2023-03-01T03:41:14;6.35;60.88
65824;SHT31;52585;47.566;19.056;2023-03-01T03:43:41;6.34;60.79
65824;SHT31;52585;47.566;19.056;2023-03-01T03:46:09;6.34;60.71
65824;SHT31;52585;47.566;19.056;2023-03-01T03:48:40;6.34;60.63
65824;SHT31;52585;47.566;19.056;2023-03-01T03:51:12;6.33;60.70
65824;SHT31;52585;47.566;19.056;2023-03-01T03:53:41;6.34;60.73
65824;SHT31;52585;47.566;19.056;2023-03-01T03:56:07;6.33;60.73
65824;SHT31;52585;47.566;19.056;2023-03-01T03:58:33;6.33;60.69
65824;SHT31;52585;47.566;19.056;2023-03-01T04:01:00;6.33;60.96
65824;SHT31;52585;47.566;19.056;2023-03-01T04:03:26;6.32;60.96
65824;SHT31;52585;47.566;19.056;2023-03-01T04:05:54;6.35;61.09
65824;SHT31;52585;47.566;19.056;2023-03-01T04:08:22;6.37;61.25
65824;SHT31;52585;47.566;19.056;2023-03-01T04:10:50;6.38;61.04
65824;SHT31;52585;47.566;19.056;2023-03-01T04:13:21;6.39;60.95
65824;SHT31;52585;47.566;19.056;2023-03-01T04:15:50;6.41;60.90
65824;SHT31;52585;47.566;19.056;2023-03-01T04:18:19;6.41;60.90
65824;SHT31;52585;47.566;19.056;2023-03-01T04:20:48;6.41;60.82
65824;SHT31;52585;47.566;19.056;2023-03-01T04:23:15;6.40;60.69
65824;SHT31;52585;47.566;19.056;2023-03-01T04:25:47;6.40;60.73
65824;SHT31;52585;47.566;19.056;2023-03-01T04:28:19;6.40;60.60
65824;SHT31;52585;47.566;19.056;2023-03-01T04:30:53;6.39;60.45
65824;SHT31;52585;47.566;19.056;2023-03-01T04:33:21;6.39;60.40
65824;SHT31;52585;47.566;19.056;2023-03-01T04:35:47;6.40;60.37
65824;SHT31;52585;47.566;19.056;2023-03-01T04:38:15;6.39;60.43
65824;SHT31;52585;47.566;19.056;2023-03-01T04:40:41;6.37;60.57
65824;SHT31;52585;47.566;19.056;2023-03-01T04:43:11;6.35;60.42
65824;SHT31;52585;47.566;19.056;2023-03-01T04:45:40;6.34;60.76
65824;SHT31;52585;47.566;19.056;2023-03-01T04:48:06;6.34;60.68
65824;SHT31;52585;47.566;19.056;2023-03-01T04:50:32;6.34;60.95
65824;SHT31;52585;47.566;19.056;2023-03-01T04:52:58;6.32;60.77
65824;SHT31;52585;47.566;19.056;2023-03-01T04:55:25;6.31;60.50
65824;SHT31;52585;47.566;19.056;2023-03-01T04:57:52;6.31;60.60
65824;SHT31;52585;47.566;19.056;2023-03-01T05:00:19;6.30;60.47
65824;SHT31;52585;47.566;19.056;2023-03-01T05:02:55;6.28;60.52
65824;SHT31;52585;47.566;19.056;2023-03-01T05:05:26;6.27;60.79
65824;SHT31;52585;47.566;19.056;2023-03-01T05:08:02;6.25;60.77
65824;SHT31;52585;47.566;19.056;2023-03-01T05:10:31;6.25;60.70
65824;SHT31;52585;47.566;19.056;2023-03-01T05:13:00;6.24;60.80
65824;SHT31;52585;47.566;19.056;2023-03-01T05:15:28;6.25;60.67
65824;SHT31;52585;47.566;19.056;2023-03-01T05:17:57;6.24;60.68
65824;SHT31;52585;47.566;19.056;2023-03-01T05:20:28;6.25;60.71
65824;SHT31;52585;47.566;19.056;2023-03-01T05:22:59;6.25;60.69
65824;SHT31;52585;47.566;19.056;2023-03-01T05:25:25;6.24;60.72
65824;SHT31;52585;47.566;19.056;2023-03-01T05:27:58;6.23;60.57
65824;SHT31;52585;47.566;19.056;2023-03-01T05:30:32;6.22;60.57
65824;SHT31;52585;47.566;19.056;2023-03-01T05:32:59;6.20;60.47
65824;SHT31;52585;47.566;19.056;2023-03-01T05:35:26;6.20;60.57
65824;SHT31;52585;47.566;19.056;2023-03-01T05:37:51;6.19;60.57
65824;SHT31;52585;47.566;19.056;2023-03-01T05:40:21;6.19;60.56
65824;SHT31;52585;47.566;19.056;2023-03-01T05:42:52;6.19;60.55
65824;SHT31;52585;47.566;19.056;2023-03-01T05:45:21;6.19;60.69
65824;SHT31;52585;47.566;19.056;2023-03-01T05:47:50;6.19;60.65
65824;SHT31;52585;47.566;19.056;2023-03-01T05:50:18;6.20;60.63
65824;SHT31;52585;47.566;19.056;2023-03-01T05:53:00;6.20;60.58
65824;SHT31;52585;47.566;19.056;2023-03-01T05:55:56;6.20;60.66
65824;SHT31;52585;47.566;19.056;2023-03-01T05:58:22;6.20;61.16
65824;SHT31;52585;47.566;19.056;2023-03-01T06:00:48;6.23;61.15
65824;SHT31;52585;47.566;19.056;2023-03-01T06:03:14;6.24;60.98
65824;SHT31;52585;47.566;19.056;2023-03-01T06:05:42;6.25;60.84
65824;SHT31;52585;47.566;19.056;2023-03-01T06:08:10;6.28;60.82
65824;SHT31;52585;47.566;19.056;2023-03-01T06:10:36;6.30;60.70
65824;SHT31;52585;47.566;19.056;2023-03-01T06:13:02;6.33;60.62
65824;SHT31;52585;47.566;19.056;2023-03-01T06:15:28;6.34;60.62
65824;SHT31;52585;47.566;19.056;2023-03-01T06:17:54;6.37;60.49
65824;SHT31;52585;47.566;19.056;2023-03-01T06:20:23;6.35;60.24
65824;SHT31;52585;47.566;19.056;2023-03-01T06:22:51;6.35;60.13
65824;SHT31;52585;47.566;19.056;2023-03-01T06:25:18;6.35;60.09
65824;SHT31;52585;47.566;19.056;2023-03-01T06:27:47;6.34;60.00
65824;SHT31;52585;47.566;19.056;2023-03-01T06:30:15;6.33;60.07
65824;SHT31;52585;47.566;19.056;2023-03-01T06:32:43;6.34;60.16
65824;SHT31;52585;47.566;19.056;2023-03-01T06:35:13;6.36;60.15
65824;SHT31;52585;47.566;19.056;2023-03-01T06:37:44;6.35;60.05
65824;SHT31;52585;47.566;19.056;2023-03-01T06:40:11;6.35;60.02
65824;SHT31;52585;47.566;19.056;2023-03-01T06:42:39;6.34;59.99
65824;SHT31;52585;47.566;19.056;2023-03-01T06:45:08;6.33;60.03
65824;SHT31;52585;47.566;19.056;2023-03-01T06:47:35;6.35;60.00
65824;SHT31;52585;47.566;19.056;2023-03-01T06:50:01;6.35;59.92
65824;SHT31;52585;47.566;19.056;2023-03-01T06:52:28;6.35;59.90
65824;SHT31;52585;47.566;19.056;2023-03-01T06:54:54;6.35;59.98
65824;SHT31;52585;47.566;19.056;2023-03-01T06:57:20;6.35;59.97
65824;SHT31;52585;47.566;19.056;2023-03-01T06:59:46;6.35;59.92
65824;SHT31;52585;47.566;19.056;2023-03-01T07:02:13;6.36;60.00
65824;SHT31;52585;47.566;19.056;2023-03-01T07:04:40;6.37;59.94
65824;SHT31;52585;47.566;19.056;2023-03-01T07:07:07;6.36;59.86
65824;SHT31;52585;47.566;19.056;2023-03-01T07:09:33;6.36;59.75
65824;SHT31;52585;47.566;19.056;2023-03-01T07:11:59;6.37;59.83
65824;SHT31;52585;47.566;19.056;2023-03-01T07:14:25;6.38;59.98
65824;SHT31;52585;47.566;19.056;2023-03-01T07:16:51;6.39;59.91
65824;SHT31;52585;47.566;19.056;2023-03-01T07:19:18;6.40;59.80
65824;SHT31;52585;47.566;19.056;2023-03-01T07:21:43;6.41;59.73
65824;SHT31;52585;47.566;19.056;2023-03-01T07:24:10;6.42;59.71
65824;SHT31;52585;47.566;19.056;2023-03-01T07:26:36;6.45;59.70
65824;SHT31;52585;47.566;19.056;2023-03-01T07:29:02;6.46;59.69
65824;SHT31;52585;47.566;19.056;2023-03-01T07:31:31;6.48;59.61
65824;SHT31;52585;47.566;19.056;2023-03-01T07:33:57;6.45;59.61
65824;SHT31;52585;47.566;19.056;2023-03-01T07:36:23;6.46;59.72
65824;SHT31;52585;47.566;19.056;2023-03-01T07:38:49;6.45;59.59
65824;SHT31;52585;47.566;19.056;2023-03-01T07:41:15;6.43;59.57
65824;SHT31;52585;47.566;19.056;2023-03-01T07:43:42;6.43;59.69
65824;SHT31;52585;47.566;19.056;2023-03-01T07:46:08;6.46;59.60
65824;SHT31;52585;47.566;19.056;2023-03-01T07:48:35;6.47;59.46
65824;SHT31;52585;47.566;19.056;2023-03-01T07:51:01;6.48;59.59
65824;SHT31;52585;47.566;19.056;2023-03-01T07:53:30;6.51;59.54
65824;SHT31;52585;47.566;19.056;2023-03-01T07:56:03;6.51;59.32
65824;SHT31;52585;47.566;19.056;2023-03-01T07:58:35;6.51;59.30
65824;SHT31;52585;47.566;19.056;2023-03-01T08:01:03;6.50;59.31
65824;SHT31;52585;47.566;19.056;2023-03-01T08:03:32;6.53;59.35
65824;SHT31;52585;47.566;19.056;2023-03-01T08:05:59;6.57;59.66
65824;SHT31;52585;47.566;19.056;2023-03-01T08:08:26;6.66;59.74
65824;SHT31;52585;47.566;19.056;2023-03-01T08:10:52;6.77;59.88
65824;SHT31;52585;47.566;19.056;2023-03-01T08:13:21;6.84;59.58
65824;SHT31;52585;47.566;19.056;2023-03-01T08:15:48;6.89;59.28
65824;SHT31;52585;47.566;19.056;2023-03-01T08:18:14;6.94;59.06
65824;SHT31;52585;47.566;19.056;2023-03-01T08:20:42;6.96;59.16
65824;SHT31;52585;47.566;19.056;2023-03-01T08:23:07;6.99;59.09
65824;SHT31;52585;47.566;19.056;2023-03-01T08:25:33;7.03;59.13
65824;SHT31;52585;47.566;19.056;2023-03-01T08:27:58;7.06;59.12
65824;SHT31;52585;47.566;19.056;2023-03-01T08:30:24;7.09;58.78
65824;SHT31;52585;47.566;19.056;2023-03-01T08:32:50;7.10;58.68
65824;SHT31;52585;47.566;19.056;2023-03-01T08:35:16;7.12;58.52
65824;SHT31;52585;47.566;19.056;2023-03-01T08:37:42;7.12;58.51
65824;SHT31;52585;47.566;19.056;2023-03-01T08:40:08;7.15;58.48
65824;SHT31;52585;47.566;19.056;2023-03-01T08:42:35;7.18;58.50
65824;SHT31;52585;47.566;19.056;2023-03-01T08:45:05;7.20;58.26
65824;SHT31;52585;47.566;19.056;2023-03-01T08:47:33;7.22;58.35
65824;SHT31;52585;47.566;19.056;2023-03-01T08:49:59;7.25;58.56
65824;SHT31;52585;47.566;19.056;2023-03-01T08:52:25;7.28;58.60
65824;SHT31;52585;47.566;19.056;2023-03-01T08:54:52;7.32;58.35
65824;SHT31;52585;47.566;19.056;2023-03-01T08:57:18;7.35;57.96
65824;SHT31;52585;47.566;19.056;2023-03-01T08:59:43;7.39;57.98
65824;SHT31;52585;47.566;19.056;2023-03-01T09:02:13;7.41;57.98
65824;SHT31;52585;47.566;19.056;2023-03-01T09:04:42;7.43;58.03
65824;SHT31;52585;47.566;19.056;2023-03-01T09:07:08;7.47;58.00
65824;SHT31;52585;47.566;19.056;2023-03-01T09:09:35;7.50;58.01
65824;SHT31;52585;47.566;19.056;2023-03-01T09:12:03;7.53;57.78
65824;SHT31;52585;47.566;19.056;2023-03-01T09:14:29;7.56;57.88
65824;SHT31;52585;47.566;19.056;2023-03-01T09:16:55;7.58;57.72
65824;SHT31;52585;47.566;19.056;2023-03-01T09:19:21;7.60;57.58
65824;SHT31;52585;47.566;19.056;2023-03-01T09:21:46;7.63;57.52
65824;SHT31;52585;47.566;19.056;2023-03-01T09:24:19;7.65;57.41
65824;SHT31;52585;47.566;19.056;2023-03-01T09:26:47;7.67;57.37
65824;SHT31;52585;47.566;19.056;2023-03-01T09:29:13;7.70;57.41
65824;SHT31;52585;47.566;19.056;2023-03-01T09:31:41;7.74;57.54
65824;SHT31;52585;47.566;19.056;2023-03-01T09:34:08;7.77;57.52
65824;SHT31;52585;47.566;19.056;2023-03-01T09:36:35;7.79;57.40
65824;SHT31;52585;47.566;19.056;2023-03-01T09:39:01;7.81;57.58
65824;SHT31;52585;47.566;19.056;2023-03-01T09:41:52;7.86;57.67
65824;SHT31;52585;47.566;19.056;2023-03-01T09:46:56;7.92;57.54
65824;SHT31;52585;47.566;19.056;2023-03-01T09:49:25;7.97;57.51
65824;SHT31;52585;47.566;19.056;2023-03-01T09:51:59;7.99;57.20
65824;SHT31;52585;47.566;19.056;2023-03-01T09:54:44;7.97;56.80
65824;SHT31;52585;47.566;19.056;2023-03-01T09:57:17;7.99;57.00
65824;SHT31;52585;47.566;19.056;2023-03-01T10:02:52;8.04;56.84
65824;SHT31;52585;47.566;19.056;2023-03-01T10:08:26;8.12;57.25
65824;SHT31;52585;47.566;19.056;2023-03-01T10:10:54;8.17;57.12
65824;SHT31;52585;47.566;19.056;2023-03-01T10:16:38;8.23;57.15
65824;SHT31;52585;47.566;19.056;2023-03-01T10:24:58;8.39;57.39
65824;SHT31;52585;47.566;19.056;2023-03-01T10:27:34;8.41;57.11
65824;SHT31;52585;47.566;19.056;2023-03-01T10:32:46;8.49;56.97
65824;SHT31;52585;47.566;19.056;2023-03-01T10:35:22;8.53;57.00
65824;SHT31;52585;47.566;19.056;2023-03-01T10:40:22;8.62;56.44
65824;SHT31;52585;47.566;19.056;2023-03-01T10:42:48;8.68;56.32
65824;SHT31;52585;47.566;19.056;2023-03-01T10:48:10;8.76;56.14
65824;SHT31;52585;47.566;19.056;2023-03-01T10:53:38;8.78;55.70
65824;SHT31;52585;47.566;19.056;2023-03-01T10:56:14;8.84;55.86
65824;SHT31;52585;47.566;19.056;2023-03-01T11:01:29;8.90;56.03
65824;SHT31;52585;47.566;19.056;2023-03-01T11:06:31;8.97;55.97
65824;SHT31;52585;47.566;19.056;2023-03-01T11:11:57;9.06;55.54
65824;SHT31;52585;47.566;19.056;2023-03-01T11:14:26;9.07;55.42
65824;SHT31;52585;47.566;19.056;2023-03-01T11:17:02;9.09;55.44
65824;SHT31;52585;47.566;19.056;2023-03-01T11:19:59;9.14;55.46
65824;SHT31;52585;47.566;19.056;2023-03-01T11:22:47;9.15;55.32
65824;SHT31;52585;47.566;19.056;2023-03-01T11:25:19;9.16;55.03
65824;SHT31;52585;47.566;19.056;2023-03-01T11:27:51;9.14;55.46
65824;SHT31;52585;47.566;19.056;2023-03-01T11:30:29;9.16;55.36
65824;SHT31;52585;47.566;19.056;2023-03-01T11:38:47;9.22;55.54
65824;SHT31;52585;47.566;19.056;2023-03-01T11:41:17;9.24;55.63
65824;SHT31;52585;47.566;19.056;2023-03-01T11:51:59;9.35;56.27
65824;SHT31;52585;47.566;19.056;2023-03-01T11:54:55;9.39;56.18
65824;SHT31;52585;47.566;19.056;2023-03-01T12:00:44;9.50;56.02
65824;SHT31;52585;47.566;19.056;2023-03-01T12:09:50;9.61;55.17
65824;SHT31;52585;47.566;19.056;2023-03-01T12:12:56;9.64;55.36
65824;SHT31;52585;47.566;19.056;2023-03-01T12:26:55;9.80;55.74
65824;SHT31;52585;47.566;19.056;2023-03-01T12:38:42;9.86;55.81
65824;SHT31;52585;47.566;19.056;2023-03-01T12:50:46;9.95;55.79
65824;SHT31;52585;47.566;19.056;2023-03-01T12:53:20;9.98;55.35
65824;SHT31;52585;47.566;19.056;2023-03-01T12:55:55;10.01;55.08
65824;SHT31;52585;47.566;19.056;2023-03-01T13:13:26;10.22;55.30
65824;SHT31;52585;47.566;19.056;2023-03-01T13:15:53;10.22;55.34
65824;SHT31;52585;47.566;19.056;2023-03-01T13:20:51;10.28;55.29
65824;SHT31;52585;47.566;19.056;2023-03-01T13:33:55;10.35;55.02
65824;SHT31;52585;47.566;19.056;2023-03-01T13:39:13;10.39;55.12
65824;SHT31;52585;47.566;19.056;2023-03-01T13:41:59;10.42;55.02
65824;SHT31;52585;47.566;19.056;2023-03-01T13:44:27;10.43;55.11
65824;SHT31;52585;47.566;19.056;2023-03-01T13:49:42;10.47;54.99
65824;SHT31;52585;47.566;19.056;2023-03-01T13:55:26;10.52;54.97
65824;SHT31;52585;47.566;19.056;2023-03-01T13:58:25;10.53;55.26
65824;SHT31;52585;47.566;19.056;2023-03-01T14:01:04;10.56;55.08
65824;SHT31;52585;47.566;19.056;2023-03-01T14:03:45;10.57;55.01
65824;SHT31;52585;47.566;19.056;2023-03-01T14:06:18;10.58;54.96
65824;SHT31;52585;47.566;19.056;2023-03-01T14:08:49;10.59;55.18
65824;SHT31;52585;47.566;19.056;2023-03-01T14:20:22;10.62;54.67
65824;SHT31;52585;47.566;19.056;2023-03-01T14:23:01;10.66;54.67
65824;SHT31;52585;47.566;19.056;2023-03-01T14:25:37;10.67;54.71
65824;SHT31;52585;47.566;19.056;2023-03-01T14:30:50;10.69;54.69
65824;SHT31;52585;47.566;19.056;2023-03-01T14:33:20;10.73;55.09
65824;SHT31;52585;47.566;19.056;2023-03-01T14:38:35;10.74;54.80
65824;SHT31;52585;47.566;19.056;2023-03-01T14:41:10;10.73;54.96
65824;SHT31;52585;47.566;19.056;2023-03-01T14:44:02;10.73;54.79
65824;SHT31;52585;47.566;19.056;2023-03-01T14:46:36;10.75;54.69
65824;SHT31;52585;47.566;19.056;2023-03-01T14:51:36;10.79;54.75
65824;SHT31;52585;47.566;19.056;2023-03-01T14:57:25;10.79;54.76
65824;SHT31;52585;47.566;19.056;2023-03-01T14:59:53;10.81;54.56
65824;SHT31;52585;47.566;19.056;2023-03-01T15:02:25;10.82;54.45
65824;SHT31;52585;47.566;19.056;2023-03-01T15:04:57;10.81;54.34
65824;SHT31;52585;47.566;19.056;2023-03-01T15:07:30;10.80;54.33
65824;SHT31;52585;47.566;19.056;2023-03-01T15:10:01;10.80;54.37
65824;SHT31;52585;47.566;19.056;2023-03-01T15:14:56;10.80;54.22
65824;SHT31;52585;47.566;19.056;2023-03-01T15:17:35;10.80;54.22
65824;SHT31;52585;47.566;19.056;2023-03-01T15:20:04;10.79;54.08
65824;SHT31;52585;47.566;19.056;2023-03-01T15:22:43;10.78;54.14
65824;SHT31;52585;47.566;19.056;2023-03-01T15:25:19;10.75;54.20
65824;SHT31;52585;47.566;19.056;2023-03-01T15:27:50;10.74;54.21
65824;SHT31;52585;47.566;19.056;2023-03-01T15:30:20;10.72;54.22
65824;SHT31;52585;47.566;19.056;2023-03-01T15:36:00;10.68;54.53
65824;SHT31;52585;47.566;19.056;2023-03-01T15:38:53;10.68;54.68
65824;SHT31;52585;47.566;19.056;2023-03-01T15:41:24;10.66;54.63
65824;SHT31;52585;47.566;19.056;2023-03-01T15:43:52;10.65;54.41
65824;SHT31;52585;47.566;19.056;2023-03-01T15:48:52;10.59;54.65
65824;SHT31;52585;47.566;19.056;2023-03-01T15:51:33;10.57;54.70
65824;SHT31;52585;47.566;19.056;2023-03-01T15:54:21;10.56;54.79
65824;SHT31;52585;47.566;19.056;2023-03-01T15:56:50;10.54;55.08
65824;SHT31;52585;47.566;19.056;2023-03-01T15:59:16;10.52;55.42
65824;SHT31;52585;47.566;19.056;2023-03-01T16:01:43;10.54;55.78
65824;SHT31;52585;47.566;19.056;2023-03-01T16:04:11;10.55;55.84
65824;SHT31;52585;47.566;19.056;2023-03-01T16:06:45;10.52;55.95
65824;SHT31;52585;47.566;19.056;2023-03-01T16:09:23;10.49;55.87
65824;SHT31;52585;47.566;19.056;2023-03-01T16:11:51;10.46;55.90
65824;SHT31;52585;47.566;19.056;2023-03-01T16:14:18;10.43;55.94
65824;SHT31;52585;47.566;19.056;2023-03-01T16:16:45;10.39;55.98
65824;SHT31;52585;47.566;19.056;2023-03-01T16:19:13;10.35;56.03
65824;SHT31;52585;47.566;19.056;2023-03-01T16:21:40;10.31;56.07
65824;SHT31;52585;47.566;19.056;2023-03-01T16:24:07;10.28;56.14
65824;SHT31;52585;47.566;19.056;2023-03-01T16:26:34;10.25;56.25
65824;SHT31;52585;47.566;19.056;2023-03-01T16:29:02;10.21;56.35
65824;SHT31;52585;47.566;19.056;2023-03-01T16:31:28;10.19;56.47
65824;SHT31;52585;47.566;19.056;2023-03-01T16:33:57;10.16;56.66
65824;SHT31;52585;47.566;19.056;2023-03-01T16:36:25;10.14;56.63
65824;SHT31;52585;47.566;19.056;2023-03-01T16:38:56;10.11;56.75
65824;SHT31;52585;47.566;19.056;2023-03-01T16:41:25;10.07;56.83
65824;SHT31;52585;47.566;19.056;2023-03-01T16:43:53;10.04;56.80
65824;SHT31;52585;47.566;19.056;2023-03-01T16:46:20;10.01;57.01
65824;SHT31;52585;47.566;19.056;2023-03-01T16:48:50;9.97;57.09
65824;SHT31;52585;47.566;19.056;2023-03-01T16:51:17;9.93;57.32
65824;SHT31;52585;47.566;19.056;2023-03-01T16:53:45;9.89;57.28
65824;SHT31;52585;47.566;19.056;2023-03-01T16:56:11;9.85;57.24
65824;SHT31;52585;47.566;19.056;2023-03-01T16:58:38;9.81;57.26
65824;SHT31;52585;47.566;19.056;2023-03-01T17:03:31;9.73;57.43
65824;SHT31;52585;47.566;19.056;2023-03-01T17:05:57;9.68;57.36
65824;SHT31;52585;47.566;19.056;2023-03-01T17:08:31;9.65;57.47
65824;SHT31;52585;47.566;19.056;2023-03-01T17:11:04;9.61;57.90
65824;SHT31;52585;47.566;19.056;2023-03-01T17:13:39;9.58;58.04
65824;SHT31;52585;47.566;19.056;2023-03-01T17:16:08;9.55;58.18
65824;SHT31;52585;47.566;19.056;2023-03-01T17:18:40;9.49;58.21
65824;SHT31;52585;47.566;19.056;2023-03-01T17:21:07;9.45;58.17
65824;SHT31;52585;47.566;19.056;2023-03-01T17:23:36;9.40;58.20
65824;SHT31;52585;47.566;19.056;2023-03-01T17:26:05;9.35;58.34
65824;SHT31;52585;47.566;19.056;2023-03-01T17:28:32;9.30;58.67
65824;SHT31;52585;47.566;19.056;2023-03-01T17:31:01;9.24;58.82
65824;SHT31;52585;47.566;19.056;2023-03-01T17:33:30;9.21;58.68
65824;SHT31;52585;47.566;19.056;2023-03-01T17:35:56;9.18;58.82
65824;SHT31;52585;47.566;19.056;2023-03-01T17:38:24;9.13;58.96
65824;SHT31;52585;47.566;19.056;2023-03-01T17:40:51;9.10;59.11
65824;SHT31;52585;47.566;19.056;2023-03-01T17:43:17;9.07;59.06
65824;SHT31;52585;47.566;19.056;2023-03-01T17:45:44;9.05;58.82
65824;SHT31;52585;47.566;19.056;2023-03-01T17:48:15;9.02;58.69
65824;SHT31;52585;47.566;19.056;2023-03-01T17:50:42;9.00;58.65
65824;SHT31;52585;47.566;19.056;2023-03-01T17:53:09;8.97;58.82
65824;SHT31;52585;47.566;19.056;2023-03-01T17:55:36;8.94;58.76
65824;SHT31;52585;47.566;19.056;2023-03-01T17:58:05;8.91;58.81
65824;SHT31;52585;47.566;19.056;2023-03-01T18:00:33;8.87;58.85
65824;SHT31;52585;47.566;19.056;2023-03-01T18:03:00;8.85;58.77
65824;SHT31;52585;47.566;19.056;2023-03-01T18:05:33;8.81;58.77
65824;SHT31;52585;47.566;19.056;2023-03-01T18:08:02;8.78;59.09
65824;SHT31;52585;47.566;19.056;2023-03-01T18:10:30;8.74;59.21
65824;SHT31;52585;47.566;19.056;2023-03-01T18:12:57;8.70;59.17
65824;SHT31;52585;47.566;19.056;2023-03-01T18:15:23;8.65;59.29
65824;SHT31;52585;47.566;19.056;2023-03-01T18:17:49;8.62;59.29
65824;SHT31;52585;47.566;19.056;2023-03-01T18:20:15;8.58;59.62
65824;SHT31;52585;47.566;19.056;2023-03-01T18:22:43;8.55;59.60
65824;SHT31;52585;47.566;19.056;2023-03-01T18:25:09;8.53;59.47
65824;SHT31;52585;47.566;19.056;2023-03-01T18:27:35;8.47;59.50
65824;SHT31;52585;47.566;19.056;2023-03-01T18:30:03;8.44;59.62
65824;SHT31;52585;47.566;19.056;2023-03-01T18:32:31;8.40;59.69
65824;SHT31;52585;47.566;19.056;2023-03-01T18:34:59;8.37;59.75